Time;durP1;ratioP1;P1;durP2;ratioP2;P2;SDS_P1;SDS_P2;PMS_P1;PMS_P2;Temp;Humidity;BMP_temperature;BMP_pressure;BME280_temperature;BME280_humidity;BME280_pressure;Samples;Min_cycle;Max_cycle;Signal;HPM_P1;HPM_P2
2022/03/26 00:00:38;;;;;;;6.10;5.60;;;10.20;1.00;;;;;;5091223;28;20251;-71
2022/03/26 00:03:06;;;;;;;6.90;6.23;;;10.10;1.00;;;;;;5090089;28;20251;-69
2022/03/26 00:05:34;;;;;;;7.37;4.93;;;10.10;1.00;;;;;;5090859;28;20201;-69
2022/03/26 00:08:01;;;;;;;6.57;5.80;;;10.10;1.00;;;;;;5090602;28;20202;-70
2022/03/26 00:10:28;;;;;;;6.27;5.67;;;10.00;1.00;;;;;;5091224;28;20262;-69
2022/03/26 00:12:56;;;;;;;7.53;5.57;;;9.90;1.00;;;;;;5090506;28;20201;-70
2022/03/26 00:15:25;;;;;;;9.77;6.03;;;9.80;1.00;;;;;;5090904;28;20272;-69
2022/03/26 00:17:52;;;;;;;8.90;6.80;;;9.70;1.00;;;;;;5090427;28;20201;-69
2022/03/26 00:20:19;;;;;;;7.93;6.87;;;9.80;1.00;;;;;;5090951;28;20254;-69
2022/03/26 00:22:46;;;;;;;8.27;5.87;;;9.80;1.00;;;;;;5091110;28;20254;-71
2022/03/26 00:25:15;;;;;;;9.27;6.63;;;9.80;1.00;;;;;;5091339;28;20201;-69
2022/03/26 00:27:42;;;;;;;7.67;6.30;;;9.80;1.00;;;;;;5090903;28;20205;-70
2022/03/26 00:30:10;;;;;;;7.80;6.43;;;9.80;1.00;;;;;;5090230;28;20202;-70
2022/03/26 00:32:39;;;;;;;8.57;7.00;;;9.80;1.00;;;;;;5090859;28;20200;-69
2022/03/26 00:35:09;;;;;;;7.97;6.30;;;9.70;1.00;;;;;;5090546;28;20237;-69
2022/03/26 00:37:36;;;;;;;8.10;6.77;;;9.70;1.00;;;;;;5090857;28;20575;-69
2022/03/26 00:40:04;;;;;;;8.60;6.70;;;9.60;1.00;;;;;;5090188;28;20730;-69
2022/03/26 00:42:31;;;;;;;12.53;6.67;;;9.70;1.00;;;;;;5090615;28;20201;-69
2022/03/26 00:44:58;;;;;;;9.67;7.23;;;9.60;1.00;;;;;;5090260;28;20205;-67
2022/03/26 00:47:25;;;;;;;8.53;7.00;;;9.60;1.00;;;;;;5090746;28;20572;-68
2022/03/26 00:49:54;;;;;;;7.23;6.53;;;9.60;1.00;;;;;;5090335;28;20213;-70
2022/03/26 00:52:21;;;;;;;7.37;6.40;;;9.50;1.00;;;;;;5090452;28;20665;-70
2022/03/26 00:54:48;;;;;;;9.53;7.37;;;9.50;1.00;;;;;;5089876;28;20708;-70
2022/03/26 00:57:16;;;;;;;8.03;6.87;;;9.40;1.00;;;;;;5090493;28;20251;-69
2022/03/26 00:59:44;;;;;;;9.13;7.20;;;9.40;1.00;;;;;;5090801;28;20204;-70
2022/03/26 01:02:11;;;;;;;9.00;7.03;;;9.40;1.00;;;;;;5090669;28;20275;-70
2022/03/26 01:04:38;;;;;;;10.20;7.57;;;9.40;1.00;;;;;;5090675;28;20259;-71
2022/03/26 01:07:07;;;;;;;6.93;6.17;;;9.40;1.00;;;;;;5090203;28;20216;-70
2022/03/26 01:09:34;;;;;;;6.90;5.90;;;9.30;1.00;;;;;;5090317;28;20225;-70
2022/03/26 01:12:01;;;;;;;8.60;7.40;;;9.30;1.00;;;;;;5089777;28;20202;-71
2022/03/26 01:14:29;;;;;;;7.57;6.23;;;9.30;1.00;;;;;;5092599;28;20229;-71
2022/03/26 01:16:56;;;;;;;7.67;6.27;;;9.30;1.00;;;;;;5093812;28;20246;-70
2022/03/26 01:19:23;;;;;;;6.40;5.63;;;9.20;1.00;;;;;;5094415;28;20270;-71
2022/03/26 01:21:50;;;;;;;7.93;7.07;;;9.20;1.00;;;;;;5093900;28;20270;-71
2022/03/26 01:24:18;;;;;;;8.27;6.33;;;9.20;1.00;;;;;;5093908;28;20258;-71
2022/03/26 01:26:45;;;;;;;9.27;6.20;;;9.20;1.00;;;;;;5093841;28;20201;-70
2022/03/26 01:29:12;;;;;;;7.70;6.57;;;9.30;1.00;;;;;;5094060;28;20209;-69
2022/03/26 01:31:39;;;;;;;9.53;6.93;;;9.30;1.00;;;;;;5093810;28;20205;-70
2022/03/26 01:34:06;;;;;;;6.30;5.70;;;9.30;1.00;;;;;;5093395;28;20225;-69
2022/03/26 01:36:33;;;;;;;7.90;6.17;;;9.20;1.00;;;;;;5093895;28;20202;-72
2022/03/26 01:39:00;;;;;;;10.53;7.03;;;9.20;1.00;;;;;;5093230;28;20198;-71
2022/03/26 01:41:29;;;;;;;6.80;6.03;;;9.10;1.00;;;;;;5093419;28;20213;-71
2022/03/26 01:43:56;;;;;;;7.80;6.53;;;9.10;1.00;;;;;;5093262;28;20251;-71
2022/03/26 01:46:23;;;;;;;7.33;6.27;;;9.10;1.00;;;;;;5093852;28;20202;-71
2022/03/26 01:48:50;;;;;;;8.93;5.53;;;9.10;1.00;;;;;;5093381;28;20205;-70
2022/03/26 01:51:18;;;;;;;6.93;5.73;;;9.10;1.00;;;;;;5093513;28;20673;-70
2022/03/26 01:53:46;;;;;;;6.00;5.40;;;9.10;1.00;;;;;;5092869;28;20251;-69
2022/03/26 01:56:14;;;;;;;7.17;5.60;;;9.00;1.00;;;;;;5093766;28;20574;-69
2022/03/26 01:58:44;;;;;;;9.67;6.10;;;9.00;1.00;;;;;;5093883;28;20579;-70
2022/03/26 02:01:11;;;;;;;7.00;5.43;;;8.90;1.00;;;;;;5093320;28;20627;-70
2022/03/26 02:03:38;;;;;;;8.80;6.00;;;8.80;1.00;;;;;;5093301;28;20729;-73
2022/03/26 02:06:05;;;;;;;7.20;5.77;;;8.80;1.00;;;;;;5092888;28;20612;-73
2022/03/26 02:08:32;;;;;;;7.87;5.27;;;8.80;1.00;;;;;;5092965;28;20202;-68
2022/03/26 02:10:59;;;;;;;7.13;6.37;;;8.90;1.00;;;;;;5092972;28;20247;-69
2022/03/26 02:13:26;;;;;;;6.10;5.53;;;8.80;1.00;;;;;;5093350;28;20210;-69
2022/03/26 02:15:56;;;;;;;6.83;5.83;;;8.80;1.00;;;;;;5092677;28;20278;-69
2022/03/26 02:18:23;;;;;;;7.23;5.00;;;8.80;1.00;;;;;;5093214;28;20233;-69
2022/03/26 02:20:51;;;;;;;6.57;5.13;;;8.70;1.00;;;;;;5092712;28;20258;-69
2022/03/26 02:23:18;;;;;;;6.37;5.67;;;8.70;1.00;;;;;;5092700;28;20259;-69
2022/03/26 02:25:45;;;;;;;6.30;5.70;;;8.60;1.00;;;;;;5092214;28;20250;-69
2022/03/26 02:28:12;;;;;;;8.60;6.67;;;8.40;1.00;;;;;;5093132;28;20305;-69
2022/03/26 02:30:39;;;;;;;7.30;6.30;;;8.50;1.00;;;;;;5092763;28;20665;-73
2022/03/26 02:33:06;;;;;;;6.70;5.90;;;8.50;1.00;;;;;;5092459;28;20205;-73
2022/03/26 02:35:33;;;;;;;9.40;6.20;;;8.30;1.00;;;;;;5092586;28;20229;-73
2022/03/26 02:38:02;;;;;;;6.43;5.40;;;8.30;1.00;;;;;;5092201;28;20259;-73
2022/03/26 02:40:36;;;;;;;6.60;5.90;;;8.30;1.00;;;;;;5092635;28;20197;-69
2022/03/26 02:43:03;;;;;;;6.40;5.13;;;8.30;1.00;;;;;;5092096;28;20656;-72
2022/03/26 02:45:32;;;;;;;7.97;6.00;;;8.30;1.00;;;;;;5092541;28;20209;-72
2022/03/26 02:47:59;;;;;;;6.33;5.33;;;8.40;1.00;;;;;;5092037;28;20198;-73
2022/03/26 02:50:26;;;;;;;6.90;5.63;;;8.20;1.00;;;;;;5092239;28;20614;-73
2022/03/26 02:52:53;;;;;;;9.20;6.23;;;8.20;1.00;;;;;;5091899;28;20201;-72
2022/03/26 02:55:21;;;;;;;9.30;6.20;;;8.20;1.00;;;;;;5092313;28;20232;-73
2022/03/26 02:57:48;;;;;;;7.80;6.20;;;8.20;1.00;;;;;;5091950;28;20198;-73
2022/03/26 03:00:16;;;;;;;7.27;6.53;;;8.20;1.00;;;;;;5092354;28;20274;-70
2022/03/26 03:02:44;;;;;;;9.60;6.93;;;8.00;1.00;;;;;;5092467;28;20228;-73
2022/03/26 03:05:10;;;;;;;6.87;5.97;;;8.10;1.00;;;;;;5091915;28;20248;-72
2022/03/26 03:07:39;;;;;;;9.00;6.37;;;8.10;1.00;;;;;;5091889;28;20209;-73
2022/03/26 03:10:07;;;;;;;7.60;6.23;;;8.10;1.00;;;;;;5091751;28;20380;-71
2022/03/26 03:12:35;;;;;;;9.17;7.37;;;8.00;1.00;;;;;;5092073;28;20329;-70
2022/03/26 03:15:02;;;;;;;7.33;6.63;;;8.00;1.00;;;;;;5091486;28;20229;-69
2022/03/26 03:17:29;;;;;;;10.50;6.57;;;7.90;1.00;;;;;;5084428;28;20543;-69
2022/03/26 03:19:57;;;;;;;9.37;7.30;;;7.90;1.00;;;;;;5071167;28;20252;-69
2022/03/26 03:22:24;;;;;;;7.93;6.40;;;7.90;1.00;;;;;;5071476;28;20198;-69
2022/03/26 03:24:51;;;;;;;6.67;5.83;;;7.90;1.00;;;;;;5071062;28;20206;-70
2022/03/26 03:27:17;;;;;;;6.57;5.93;;;7.90;1.00;;;;;;5071555;28;20252;-69
2022/03/26 03:29:46;;;;;;;6.70;5.63;;;8.00;1.00;;;;;;5071383;28;20591;-70
2022/03/26 03:32:14;;;;;;;6.93;6.33;;;7.90;1.00;;;;;;5072009;28;20206;-68
2022/03/26 03:34:41;;;;;;;7.70;5.57;;;7.90;1.00;;;;;;5071300;28;20225;-68
2022/03/26 03:37:08;;;;;;;6.47;5.47;;;7.90;1.00;;;;;;5071315;28;20248;-68
2022/03/26 03:39:35;;;;;;;9.97;6.00;;;7.80;1.00;;;;;;5071270;28;20210;-69
2022/03/26 03:42:03;;;;;;;6.20;5.47;;;7.80;1.00;;;;;;5070682;28;20255;-68
2022/03/26 03:44:29;;;;;;;5.67;5.10;;;7.90;1.00;;;;;;5071092;28;20206;-70
2022/03/26 03:46:58;;;;;;;6.57;5.60;;;7.80;1.00;;;;;;5070890;28;20206;-69
2022/03/26 03:49:26;;;;;;;6.90;5.47;;;7.70;1.00;;;;;;5070879;28;20251;-69
2022/03/26 03:51:53;;;;;;;6.60;6.00;;;7.50;1.00;;;;;;5070644;28;20241;-69
2022/03/26 03:54:20;;;;;;;7.97;6.30;;;7.30;1.00;;;;;;5083210;28;20197;-69
2022/03/26 03:56:47;;;;;;;7.27;6.27;;;7.50;1.00;;;;;;5083625;28;20246;-71
2022/03/26 03:59:14;;;;;;;6.73;5.77;;;7.60;1.00;;;;;;5091145;28;20254;-68
2022/03/26 04:01:41;;;;;;;8.40;6.37;;;7.60;1.00;;;;;;5087059;28;20205;-69
2022/03/26 04:04:10;;;;;;;7.70;6.20;;;7.50;1.00;;;;;;5089962;28;20201;-69
2022/03/26 04:06:37;;;;;;;6.67;5.87;;;7.50;1.00;;;;;;5090787;28;20261;-68
2022/03/26 04:09:04;;;;;;;8.20;6.03;;;7.40;1.00;;;;;;5090267;28;20219;-69
2022/03/26 04:11:31;;;;;;;6.97;6.27;;;7.30;1.00;;;;;;5085403;28;20206;-71
2022/03/26 04:13:58;;;;;;;6.50;5.70;;;7.30;1.00;;;;;;5086622;28;20206;-71
2022/03/26 04:16:25;;;;;;;8.57;6.23;;;7.10;1.00;;;;;;5090898;28;20290;-71
2022/03/26 04:18:52;;;;;;;8.93;6.10;;;7.20;1.00;;;;;;5090086;28;20254;-71
2022/03/26 04:21:20;;;;;;;6.93;6.20;;;7.20;1.00;;;;;;5090942;28;20201;-70
2022/03/26 04:23:47;;;;;;;6.63;5.80;;;7.10;1.00;;;;;;5090464;28;20198;-71
2022/03/26 04:26:14;;;;;;;7.83;6.97;;;7.30;1.00;;;;;;5088150;28;20206;-70
2022/03/26 04:28:41;;;;;;;8.17;6.90;;;7.40;1.00;;;;;;5081750;28;20210;-69
2022/03/26 04:31:10;;;;;;;9.20;6.80;;;7.40;1.00;;;;;;5084819;28;20284;-69
2022/03/26 04:33:37;;;;;;;6.80;6.10;;;7.40;1.00;;;;;;5085012;28;20240;-70
2022/03/26 04:36:05;;;;;;;8.70;6.47;;;7.50;1.00;;;;;;5090143;28;20226;-70
2022/03/26 04:38:33;;;;;;;8.10;6.17;;;7.40;1.00;;;;;;5090438;28;20206;-70
2022/03/26 04:41:00;;;;;;;6.97;6.27;;;7.40;1.00;;;;;;5089911;28;20209;-73
2022/03/26 04:43:27;;;;;;;8.63;6.43;;;7.40;1.00;;;;;;5090310;28;20268;-70
2022/03/26 04:45:54;;;;;;;8.67;6.40;;;7.40;1.00;;;;;;5087757;28;20247;-73
2022/03/26 04:48:21;;;;;;;7.50;6.70;;;7.30;1.00;;;;;;5090549;28;20198;-72
2022/03/26 04:50:48;;;;;;;8.07;6.53;;;7.20;1.00;;;;;;5093772;28;20638;-69
2022/03/26 04:53:15;;;;;;;8.33;6.63;;;7.10;1.00;;;;;;5094234;28;20206;-69
2022/03/26 04:55:43;;;;;;;10.80;7.23;;;7.00;1.00;;;;;;5094632;28;20769;-69
2022/03/26 04:58:10;;;;;;;7.80;6.10;;;7.10;1.00;;;;;;5094281;28;20214;-71
2022/03/26 05:00:37;;;;;;;7.73;5.90;;;7.20;1.00;;;;;;5094342;28;20205;-72
2022/03/26 05:03:04;;;;;;;7.40;6.07;;;7.30;1.00;;;;;;5093755;28;20660;-69
2022/03/26 05:05:32;;;;;;;8.23;6.13;;;7.40;1.00;;;;;;5094220;28;20580;-72
2022/03/26 05:07:59;;;;;;;7.60;5.60;;;7.30;1.00;;;;;;5093414;28;20206;-70
2022/03/26 05:10:28;;;;;;;7.43;5.47;;;7.40;1.00;;;;;;5094519;28;20202;-70
2022/03/26 05:12:58;;;;;;;6.67;5.67;;;7.50;1.00;;;;;;5093812;28;20263;-70
2022/03/26 05:15:28;;;;;;;11.37;6.60;;;7.40;1.00;;;;;;5094001;28;20243;-70
2022/03/26 05:17:56;;;;;;;8.23;6.37;;;7.40;1.00;;;;;;5093093;28;20237;-69
2022/03/26 05:20:23;;;;;;;8.40;6.53;;;7.40;1.00;;;;;;5094090;28;20290;-70
2022/03/26 05:22:51;;;;;;;7.93;6.90;;;7.40;1.00;;;;;;5089546;28;20669;-71
2022/03/26 05:25:19;;;;;;;8.07;6.90;;;7.40;1.00;;;;;;5093756;28;20202;-72
2022/03/26 05:27:47;;;;;;;8.33;6.33;;;7.40;1.00;;;;;;5093792;28;20673;-70
2022/03/26 05:30:16;;;;;;;8.47;7.20;;;7.40;1.00;;;;;;5093646;28;20251;-70
2022/03/26 05:32:43;;;;;;;7.97;5.80;;;7.30;1.00;;;;;;5094173;28;20248;-69
2022/03/26 05:35:13;;;;;;;10.47;5.60;;;7.30;1.00;;;;;;5093294;28;20761;-69
2022/03/26 05:37:41;;;;;;;7.53;6.47;;;7.20;1.00;;;;;;5093809;28;20292;-69
2022/03/26 05:40:09;;;;;;;9.17;6.43;;;7.20;1.00;;;;;;5093135;28;20217;-68
2022/03/26 05:42:36;;;;;;;8.20;7.37;;;7.10;1.00;;;;;;5093645;28;20338;-69
2022/03/26 05:45:04;;;;;;;8.03;5.77;;;7.10;1.00;;;;;;5092663;28;20661;-69
2022/03/26 05:47:33;;;;;;;5.73;5.23;;;7.00;1.00;;;;;;5093348;28;20734;-69
2022/03/26 05:50:00;;;;;;;6.70;6.00;;;7.20;1.00;;;;;;5092915;28;20236;-70
2022/03/26 05:52:27;;;;;;;8.53;6.50;;;7.20;1.00;;;;;;5093397;28;20263;-69
2022/03/26 05:54:55;;;;;;;7.80;6.50;;;7.20;1.00;;;;;;5092774;28;20209;-70
2022/03/26 05:57:22;;;;;;;7.47;5.57;;;7.40;1.00;;;;;;5092513;28;20246;-71
2022/03/26 05:59:49;;;;;;;9.23;5.57;;;7.50;1.00;;;;;;5085917;28;20256;-71
2022/03/26 06:02:16;;;;;;;8.40;7.30;;;7.60;1.00;;;;;;5080890;28;20292;-69
2022/03/26 06:04:45;;;;;;;7.27;6.30;;;7.60;1.00;;;;;;5084177;28;20206;-69
2022/03/26 06:07:13;;;;;;;7.93;6.27;;;7.70;1.00;;;;;;5081308;28;20205;-69
2022/03/26 06:09:40;;;;;;;10.80;6.63;;;7.70;1.00;;;;;;5076755;28;20201;-69
2022/03/26 06:12:08;;;;;;;7.87;6.93;;;7.70;1.00;;;;;;5092442;28;20201;-69
2022/03/26 06:14:35;;;;;;;6.83;5.93;;;7.70;1.00;;;;;;5090841;28;20587;-71
2022/03/26 06:17:03;;;;;;;7.40;6.40;;;8.00;1.00;;;;;;5081999;28;20278;-70
2022/03/26 06:19:30;;;;;;;12.93;7.20;;;7.90;1.00;;;;;;5091906;28;20221;-70
2022/03/26 06:21:59;;;;;;;8.10;7.30;;;8.00;1.00;;;;;;5090798;28;20278;-68
2022/03/26 06:24:26;;;;;;;8.30;7.13;;;8.10;1.00;;;;;;5091008;28;20202;-70
2022/03/26 06:26:53;;;;;;;9.37;7.87;;;8.30;1.00;;;;;;5084321;28;20222;-69
2022/03/26 06:29:20;;;;;;;9.60;7.60;;;8.40;1.00;;;;;;5072131;28;20610;-69
2022/03/26 06:31:47;;;;;;;9.77;7.60;;;8.80;1.00;;;;;;5072350;28;20217;-69
2022/03/26 06:34:15;;;;;;;9.50;7.00;;;8.90;1.00;;;;;;5087102;28;20301;-69
2022/03/26 06:36:42;;;;;;;10.20;8.00;;;9.10;1.00;;;;;;5078908;28;20236;-68
2022/03/26 06:39:10;;;;;;;10.30;7.93;;;9.40;1.00;;;;;;5076243;28;20280;-67
2022/03/26 06:41:39;;;;;;;10.33;8.10;;;9.70;1.00;;;;;;5091152;28;20270;-68
2022/03/26 06:44:07;;;;;;;8.80;7.37;;;9.80;1.00;;;;;;5079762;28;20236;-68
2022/03/26 06:46:34;;;;;;;9.20;7.37;;;9.80;1.00;;;;;;5072139;28;20237;-67
2022/03/26 06:49:01;;;;;;;7.50;6.70;;;10.00;1.00;;;;;;5074082;28;20244;-67
2022/03/26 06:51:28;;;;;;;9.90;8.60;;;10.10;1.00;;;;;;5092303;28;20209;-68
2022/03/26 06:53:55;;;;;;;8.07;7.27;;;10.10;1.00;;;;;;5091898;28;20206;-68
2022/03/26 06:56:24;;;;;;;7.93;6.50;;;10.30;1.00;;;;;;5087496;28;20242;-67
2022/03/26 06:58:51;;;;;;;8.57;7.17;;;10.40;1.00;;;;;;5071014;28;20248;-68
2022/03/26 07:01:18;;;;;;;8.90;7.30;;;10.40;1.00;;;;;;5072036;28;20209;-67
2022/03/26 07:03:45;;;;;;;9.23;7.83;;;10.50;1.00;;;;;;5086196;28;20255;-67
2022/03/26 07:06:13;;;;;;;11.00;7.90;;;10.70;1.00;;;;;;5081990;28;20209;-67
2022/03/26 07:08:40;;;;;;;8.17;6.87;;;10.70;1.00;;;;;;5089920;28;20210;-66
2022/03/26 07:11:07;;;;;;;7.90;7.10;;;10.90;1.00;;;;;;5076366;28;20210;-68
2022/03/26 07:13:35;;;;;;;9.53;7.57;;;11.10;1.00;;;;;;5082667;28;20677;-67
2022/03/26 07:16:02;;;;;;;13.83;8.33;;;11.10;1.00;;;;;;5089226;28;20237;-67
2022/03/26 07:18:29;;;;;;;9.63;7.97;;;11.10;1.00;;;;;;5085453;28;20214;-67
2022/03/26 07:20:59;;;;;;;7.30;6.60;;;11.20;1.00;;;;;;5070356;28;20202;-67
2022/03/26 07:23:26;;;;;;;7.87;6.53;;;11.30;1.00;;;;;;5071318;28;20205;-67
2022/03/26 07:25:54;;;;;;;9.33;7.03;;;11.40;1.00;;;;;;5073842;28;20209;-67
2022/03/26 07:28:21;;;;;;;13.53;8.03;;;11.60;1.00;;;;;;5071516;28;20255;-67
2022/03/26 07:30:49;;;;;;;11.57;8.40;;;11.70;1.00;;;;;;5090893;28;20247;-67
2022/03/26 07:33:16;;;;;;;7.97;7.17;;;11.60;1.00;;;;;;5091785;28;20281;-68
2022/03/26 07:35:44;;;;;;;7.87;6.80;;;11.60;1.00;;;;;;5091570;28;20229;-67
2022/03/26 07:38:11;;;;;;;9.70;7.00;;;11.70;1.00;;;;;;5080536;28;20205;-67
2022/03/26 07:40:38;;;;;;;11.90;8.27;;;11.70;1.00;;;;;;5079564;28;20599;-68
2022/03/26 07:43:07;;;;;;;8.93;6.73;;;12.00;1.00;;;;;;5091360;28;20629;-67
2022/03/26 07:45:34;;;;;;;9.40;7.83;;;11.90;1.00;;;;;;5071945;28;20210;-68
2022/03/26 07:48:03;;;;;;;9.67;6.87;;;12.00;1.00;;;;;;5071153;28;20224;-68
2022/03/26 07:50:31;;;;;;;9.33;7.43;;;12.10;1.00;;;;;;5071034;28;20677;-68
2022/03/26 07:52:58;;;;;;;8.03;7.23;;;12.20;1.00;;;;;;5083307;28;20216;-68
2022/03/26 07:55:25;;;;;;;10.47;8.63;;;12.10;1.00;;;;;;5091273;28;20198;-68
2022/03/26 07:57:52;;;;;;;8.30;6.90;;;12.10;1.00;;;;;;5079755;28;20210;-69
2022/03/26 08:00:19;;;;;;;11.70;7.40;;;12.30;1.00;;;;;;5070915;28;20259;-69
2022/03/26 08:02:46;;;;;;;8.37;7.57;;;12.30;1.00;;;;;;5070800;28;20198;-68
2022/03/26 08:05:15;;;;;;;10.70;8.67;;;12.30;1.00;;;;;;5070926;28;20212;-68
2022/03/26 08:07:42;;;;;;;11.30;7.83;;;12.40;1.00;;;;;;5078940;28;20206;-68
2022/03/26 08:10:09;;;;;;;8.03;7.30;;;12.70;1.00;;;;;;5080022;28;20209;-67
2022/03/26 08:12:36;;;;;;;9.03;7.60;;;12.50;1.00;;;;;;5077678;28;20252;-68
2022/03/26 08:15:04;;;;;;;7.93;6.40;;;12.60;1.00;;;;;;5070768;28;20210;-68
2022/03/26 08:17:31;;;;;;;10.83;7.63;;;12.60;1.00;;;;;;5070536;28;20229;-67
2022/03/26 08:19:58;;;;;;;12.02;8.35;;;12.70;1.00;;;;;;5077648;28;20209;-67
2022/03/26 08:22:27;;;;;;;9.73;7.67;;;13.00;1.00;;;;;;5073899;28;20266;-67
2022/03/26 08:24:54;;;;;;;12.80;7.05;;;13.10;1.00;;;;;;5068696;28;20255;-67
2022/03/26 08:27:22;;;;;;;10.57;7.37;;;13.20;1.00;;;;;;5074223;28;20735;-67
2022/03/26 08:29:50;;;;;;;7.77;6.80;;;13.10;1.00;;;;;;5069339;28;20263;-67
2022/03/26 08:32:17;;;;;;;7.63;6.93;;;13.20;1.00;;;;;;5072722;28;20214;-67
2022/03/26 08:34:45;;;;;;;8.82;6.93;;;13.40;1.00;;;;;;5071517;28;20213;-67
2022/03/26 08:37:12;;;;;;;10.02;6.72;;;13.20;1.00;;;;;;5070214;28;20237;-68
2022/03/26 08:39:40;;;;;;;9.05;7.28;;;13.30;1.00;;;;;;5072428;28;20198;-68
2022/03/26 08:42:08;;;;;;;9.63;7.32;;;13.40;1.00;;;;;;5072976;28;20218;-71
2022/03/26 08:44:35;;;;;;;7.95;6.90;;;13.40;1.00;;;;;;5089675;28;20695;-69
2022/03/26 08:47:04;;;;;;;7.20;6.07;;;13.40;1.00;;;;;;5090873;28;20282;-71
2022/03/26 08:49:32;;;;;;;8.85;6.90;;;13.60;1.00;;;;;;5079061;28;20264;-70
2022/03/26 08:51:59;;;;;;;7.95;6.78;;;13.40;1.00;;;;;;5083471;28;20664;-70
2022/03/26 08:54:26;;;;;;;6.97;6.28;;;13.60;1.00;;;;;;5076404;28;20270;-70
2022/03/26 08:56:54;;;;;;;9.63;7.38;;;13.50;1.00;;;;;;5086119;28;20287;-70
2022/03/26 08:59:23;;;;;;;8.50;7.03;;;13.80;1.00;;;;;;5070528;28;20198;-70
2022/03/26 09:01:51;;;;;;;8.35;6.05;;;13.70;1.00;;;;;;5070213;28;20206;-69
2022/03/26 09:04:18;;;;;;;7.28;6.15;;;13.90;1.00;;;;;;5070608;28;20256;-70
2022/03/26 09:06:45;;;;;;;7.00;6.30;;;14.00;1.00;;;;;;5080889;28;20206;-71
2022/03/26 09:09:14;;;;;;;9.70;6.15;;;14.10;1.00;;;;;;5084167;28;20249;-69
2022/03/26 09:11:43;;;;;;;7.35;6.50;;;14.10;1.00;;;;;;5076800;28;20206;-70
2022/03/26 09:14:12;;;;;;;7.65;6.68;;;14.40;1.00;;;;;;5074435;28;20261;-71
2022/03/26 09:16:39;;;;;;;7.30;6.60;;;14.80;1.00;;;;;;5080552;28;20777;-72
2022/03/26 09:19:06;;;;;;;7.13;6.43;;;14.90;1.00;;;;;;5075238;28;20597;-70
2022/03/26 09:21:33;;;;;;;7.97;6.95;;;15.00;1.00;;;;;;5088165;28;20287;-72
2022/03/26 09:24:00;;;;;;;11.23;7.30;;;15.40;1.00;;;;;;5085098;28;20648;-70
2022/03/26 09:26:27;;;;;;;7.70;6.88;;;16.10;1.00;;;;;;5084522;28;20618;-70
2022/03/26 09:28:54;;;;;;;7.43;6.68;;;16.50;1.00;;;;;;5087206;28;20742;-71
2022/03/26 09:31:22;;;;;;;10.13;6.95;;;16.80;1.00;;;;;;5090499;28;20657;-71
2022/03/26 09:33:50;;;;;;;9.40;6.50;;;16.70;1.00;;;;;;5090275;28;20254;-69
2022/03/26 09:36:17;;;;;;;6.90;6.20;;;15.90;1.00;;;;;;5093114;28;20543;-68
2022/03/26 09:38:44;;;;;;;6.90;6.22;;;15.40;1.00;;;;;;5093641;28;20263;-69
2022/03/26 09:41:11;;;;;;;12.45;6.65;;;16.60;1.00;;;;;;5078665;28;20677;-70
2022/03/26 09:43:39;;;;;;;6.40;5.80;;;17.10;1.00;;;;;;5073039;28;20206;-72
2022/03/26 09:46:07;;;;;;;8.43;6.78;;;16.20;1.00;;;;;;5075849;28;20202;-71
2022/03/26 09:48:35;;;;;;;7.35;6.43;;;16.50;1.00;;;;;;5085034;28;20246;-71
2022/03/26 09:51:04;;;;;;;8.88;6.07;;;15.40;1.00;;;;;;5090154;28;20210;-70
2022/03/26 09:53:31;;;;;;;8.05;7.25;;;15.50;1.00;;;;;;5080955;28;20206;-71
2022/03/26 09:55:58;;;;;;;9.15;6.32;;;15.90;1.00;;;;;;5085575;28;20198;-72
2022/03/26 09:58:26;;;;;;;8.70;6.40;;;15.80;1.00;;;;;;5081899;28;20256;-70
2022/03/26 10:00:53;;;;;;;8.60;6.05;;;15.80;1.00;;;;;;5088813;28;20999;-69
2022/03/26 10:03:21;;;;;;;7.55;6.80;;;15.90;1.00;;;;;;5084238;28;20289;-70
2022/03/26 10:05:49;;;;;;;8.32;6.53;;;15.60;1.00;;;;;;5090613;28;20201;-69
2022/03/26 10:08:21;;;;;;;7.50;6.50;;;15.70;1.00;;;;;;5093435;28;20250;-70
2022/03/26 10:10:49;;;;;;;7.25;5.80;;;15.90;1.00;;;;;;5091510;28;20209;-70
2022/03/26 10:13:37;;;;;;;7.55;6.40;;;16.70;1.00;;;;;;5084012;28;20202;-70
2022/03/26 10:16:07;;;;;;;6.18;5.57;;;17.10;1.00;;;;;;5081415;28;20197;-71
2022/03/26 10:18:38;;;;;;;6.85;6.13;;;17.20;1.00;;;;;;5091989;28;20272;-70
2022/03/26 10:21:09;;;;;;;7.00;5.82;;;17.50;1.00;;;;;;5086732;28;20673;-70
2022/03/26 10:23:37;;;;;;;7.43;6.78;;;16.90;1.00;;;;;;5080261;28;20206;-70
2022/03/26 10:26:09;;;;;;;10.35;5.97;;;17.50;1.00;;;;;;5079582;28;20584;-70
2022/03/26 10:28:36;;;;;;;7.78;6.72;;;17.90;1.00;;;;;;5087169;28;20213;-71
2022/03/26 10:34:08;;;;;;;8.00;6.13;;;18.70;1.00;;;;;;5092378;28;20212;-71
2022/03/26 10:36:38;;;;;;;6.05;5.38;;;18.70;1.00;;;;;;5081562;28;20205;-72
2022/03/26 10:39:06;;;;;;;7.40;6.53;;;16.90;1.00;;;;;;5082222;28;20214;-72
2022/03/26 10:41:35;;;;;;;7.18;6.00;;;16.50;1.00;;;;;;5072066;28;20213;-72
2022/03/26 10:44:10;;;;;;;10.30;6.53;;;16.00;1.00;;;;;;5072034;28;20206;-72
2022/03/26 10:46:48;;;;;;;6.50;5.78;;;15.80;1.00;;;;;;5079119;28;20201;-72
2022/03/26 10:49:26;;;;;;;6.07;5.45;;;16.20;1.00;;;;;;5084103;28;20621;-72
2022/03/26 10:51:55;;;;;;;6.93;6.13;;;16.00;1.00;;;;;;5082999;28;20262;-74
2022/03/26 10:54:29;;;;;;;8.27;6.00;;;15.70;1.00;;;;;;5092202;28;20588;-71
2022/03/26 10:56:59;;;;;;;7.75;6.20;;;16.10;1.00;;;;;;5091556;28;20229;-72
2022/03/26 10:59:26;;;;;;;9.70;5.47;;;16.00;1.00;;;;;;5092012;28;20294;-72
2022/03/26 11:01:53;;;;;;;5.53;5.03;;;16.30;1.00;;;;;;5091539;28;20664;-73
2022/03/26 11:04:21;;;;;;;6.82;5.50;;;16.50;1.00;;;;;;5090638;28;20269;-71
2022/03/26 11:06:49;;;;;;;8.20;5.22;;;16.70;1.00;;;;;;5091157;28;20292;-72
2022/03/26 11:09:17;;;;;;;6.55;5.65;;;16.30;1.00;;;;;;5091949;28;20776;-72
2022/03/26 11:11:45;;;;;;;12.63;7.32;;;16.50;1.00;;;;;;5083272;28;20673;-71
2022/03/26 11:14:17;;;;;;;6.28;5.32;;;16.70;1.00;;;;;;5083526;28;20210;-72
2022/03/26 11:16:57;;;;;;;6.25;4.82;;;16.40;1.00;;;;;;5081277;28;20621;-71
2022/03/26 11:19:38;;;;;;;6.20;4.80;;;17.10;1.00;;;;;;5082144;28;20201;-71
2022/03/26 11:22:26;;;;;;;5.30;4.80;;;16.90;1.00;;;;;;5084168;28;20260;-71
2022/03/26 11:25:23;;;;;;;6.15;4.72;;;16.80;1.00;;;;;;5083858;28;20390;-72
2022/03/26 11:28:00;;;;;;;5.57;4.30;;;16.80;1.00;;;;;;5076238;28;20209;-73
2022/03/26 11:30:34;;;;;;;6.70;4.88;;;17.20;1.00;;;;;;5081519;28;20202;-71
2022/03/26 11:33:10;;;;;;;6.57;4.07;;;17.10;1.00;;;;;;5091126;28;20209;-71
2022/03/26 11:35:52;;;;;;;5.65;4.18;;;17.00;1.00;;;;;;5091132;28;20211;-72
2022/03/26 11:38:19;;;;;;;8.85;5.18;;;17.30;1.00;;;;;;5091544;28;20324;-72
2022/03/26 11:40:53;;;;;;;5.47;4.53;;;17.60;1.00;;;;;;5091174;28;20206;-72
2022/03/26 11:43:42;;;;;;;5.85;4.72;;;17.40;1.00;;;;;;5091507;28;20224;-73
2022/03/26 11:52:16;;;;;;;6.03;4.10;;;17.50;1.00;;;;;;5029421;28;20733;-73
2022/03/26 11:54:43;;;;;;;5.72;3.60;;;17.30;1.00;;;;;;5072545;28;20617;-73
2022/03/26 11:57:16;;;;;;;5.10;4.60;;;17.50;1.00;;;;;;5091067;28;20233;-73
2022/03/26 11:59:44;;;;;;;5.18;4.68;;;17.60;1.00;;;;;;5089749;28;20259;-72
2022/03/26 12:02:22;;;;;;;6.45;4.80;;;17.90;1.00;;;;;;5080024;28;20274;-72
2022/03/26 12:04:54;;;;;;;5.15;4.65;;;18.00;1.00;;;;;;5088840;28;20263;-75
2022/03/26 12:07:23;;;;;;;5.30;4.80;;;17.60;1.00;;;;;;5080447;28;20227;-74
2022/03/26 12:10:04;;;;;;;8.32;4.25;;;17.40;1.00;;;;;;5079687;28;20232;-72
2022/03/26 12:12:49;;;;;;;6.13;3.78;;;17.70;1.00;;;;;;5079763;28;20217;-71
2022/03/26 12:15:27;;;;;;;7.80;4.00;;;17.90;1.00;;;;;;5070596;28;20197;-70
2022/03/26 12:17:56;;;;;;;5.85;4.28;;;17.70;1.00;;;;;;5070155;28;20280;-70
2022/03/26 12:20:32;;;;;;;8.85;4.03;;;17.80;1.00;;;;;;5070934;28;20296;-72
2022/03/26 12:23:06;;;;;;;5.10;3.78;;;18.30;1.00;;;;;;5071088;28;20240;-72
2022/03/26 12:25:47;;;;;;;5.75;3.90;;;18.20;1.00;;;;;;5070525;28;20217;-72
2022/03/26 12:28:17;;;;;;;5.15;4.03;;;18.00;1.00;;;;;;5070633;28;20304;-72
2022/03/26 12:30:49;;;;;;;5.32;4.28;;;18.20;1.00;;;;;;5070079;28;20248;-74
2022/03/26 12:33:16;;;;;;;6.05;4.05;;;18.20;1.00;;;;;;5070648;28;20731;-74
2022/03/26 12:35:45;;;;;;;5.82;3.95;;;18.10;1.00;;;;;;5069857;28;20206;-73
2022/03/26 12:38:12;;;;;;;6.50;4.38;;;17.90;1.00;;;;;;5070739;28;20248;-73
2022/03/26 12:40:40;;;;;;;5.70;4.18;;;17.80;1.00;;;;;;5070472;28;20247;-72
2022/03/26 12:43:10;;;;;;;5.95;4.03;;;17.70;1.00;;;;;;5070593;28;20206;-72
2022/03/26 12:45:38;;;;;;;5.72;4.63;;;17.90;1.00;;;;;;5070342;28;20198;-72
2022/03/26 12:48:13;;;;;;;4.45;4.05;;;17.90;1.00;;;;;;5076820;28;20198;-72
2022/03/26 12:50:42;;;;;;;6.07;4.20;;;18.00;1.00;;;;;;5083571;28;20263;-74
2022/03/26 12:53:11;;;;;;;5.28;4.05;;;18.10;1.00;;;;;;5085821;28;20255;-72
2022/03/26 12:55:38;;;;;;;6.47;4.07;;;18.20;1.00;;;;;;5089796;28;20627;-73
2022/03/26 13:01:06;;;;;;;6.18;4.75;;;18.30;1.00;;;;;;5089840;28;20218;-71
2022/03/26 13:03:34;;;;;;;5.32;4.43;;;18.10;1.00;;;;;;5085889;28;20607;-71
2022/03/26 13:06:05;;;;;;;6.30;5.03;;;18.20;1.00;;;;;;5082616;28;20204;-72
2022/03/26 13:08:32;;;;;;;6.82;4.72;;;18.00;1.00;;;;;;5083329;28;20213;-72
2022/03/26 13:11:05;;;;;;;4.53;4.13;;;18.10;1.00;;;;;;5085378;28;20730;-71
2022/03/26 13:13:33;;;;;;;5.13;3.58;;;18.20;1.00;;;;;;5088014;28;20271;-74
2022/03/26 13:16:07;;;;;;;4.32;3.92;;;18.10;1.00;;;;;;5088708;28;20207;-73
2022/03/26 13:18:41;;;;;;;6.38;4.80;;;18.10;1.00;;;;;;5093085;28;20315;-72